sensor_id;sensor_type;location;lat;lon;timestamp;pressure;altitude;pressure_sealevel;temperature;humidity
24160;BME280;62385;41.594;23.808;2023-03-14T00:01:56;95740.88;;;2.74;62.96
24160;BME280;62385;41.594;23.808;2023-03-14T00:04:22;95750.06;;;2.68;63.15
24160;BME280;62385;41.594;23.808;2023-03-14T00:06:47;95743.84;;;2.69;63.54
24160;BME280;62385;41.594;23.808;2023-03-14T00:09:16;95737.06;;;2.56;63.65
24160;BME280;62385;41.594;23.808;2023-03-14T00:11:42;95731.00;;;2.66;63.52
24160;BME280;62385;41.594;23.808;2023-03-14T00:14:08;95730.25;;;2.53;64.08
24160;BME280;62385;41.594;23.808;2023-03-14T00:16:33;95727.56;;;2.77;62.61
24160;BME280;62385;41.594;23.808;2023-03-14T00:18:59;95723.03;;;2.79;62.75
24160;BME280;62385;41.594;23.808;2023-03-14T00:21:25;95712.09;;;2.85;63.00
24160;BME280;62385;41.594;23.808;2023-03-14T00:23:51;95713.28;;;2.92;62.79
24160;BME280;62385;41.594;23.808;2023-03-14T00:26:19;95703.00;;;3.11;62.03
24160;BME280;62385;41.594;23.808;2023-03-14T00:28:51;95704.09;;;3.09;61.89
24160;BME280;62385;41.594;23.808;2023-03-14T00:31:18;95714.56;;;2.87;62.49
24160;BME280;62385;41.594;23.808;2023-03-14T00:33:44;95706.09;;;3.16;62.00
24160;BME280;62385;41.594;23.808;2023-03-14T00:36:15;95703.38;;;3.18;61.65
24160;BME280;62385;41.594;23.808;2023-03-14T00:38:43;95697.53;;;3.25;61.43
24160;BME280;62385;41.594;23.808;2023-03-14T00:41:11;95695.59;;;3.28;61.67
24160;BME280;62385;41.594;23.808;2023-03-14T00:43:38;95690.44;;;3.48;61.07
24160;BME280;62385;41.594;23.808;2023-03-14T00:46:04;95693.34;;;3.34;62.64
24160;BME280;62385;41.594;23.808;2023-03-14T00:48:32;95694.66;;;3.29;63.52
24160;BME280;62385;41.594;23.808;2023-03-14T00:51:00;95696.81;;;3.35;63.52
24160;BME280;62385;41.594;23.808;2023-03-14T00:53:25;95691.31;;;3.27;63.59
24160;BME280;62385;41.594;23.808;2023-03-14T00:55:51;95689.41;;;3.17;62.74
24160;BME280;62385;41.594;23.808;2023-03-14T00:58:17;95694.06;;;3.03;62.87
24160;BME280;62385;41.594;23.808;2023-03-14T01:00:45;95686.72;;;2.86;62.32
24160;BME280;62385;41.594;23.808;2023-03-14T01:03:11;95688.25;;;2.77;62.60
24160;BME280;62385;41.594;23.808;2023-03-14T01:05:37;95689.06;;;2.55;62.73
24160;BME280;62385;41.594;23.808;2023-03-14T01:08:04;95679.53;;;2.43;63.58
24160;BME280;62385;41.594;23.808;2023-03-14T01:10:37;95686.78;;;2.51;63.19
24160;BME280;62385;41.594;23.808;2023-03-14T01:13:04;95679.41;;;2.67;63.24
24160;BME280;62385;41.594;23.808;2023-03-14T01:15:29;95673.72;;;2.73;62.55
24160;BME280;62385;41.594;23.808;2023-03-14T01:17:55;95672.75;;;2.52;63.24
24160;BME280;62385;41.594;23.808;2023-03-14T01:20:22;95668.78;;;2.35;63.97
24160;BME280;62385;41.594;23.808;2023-03-14T01:22:47;95663.13;;;2.06;63.83
24160;BME280;62385;41.594;23.808;2023-03-14T01:25:14;95663.31;;;1.92;64.72
24160;BME280;62385;41.594;23.808;2023-03-14T01:27:41;95671.97;;;1.81;64.56
24160;BME280;62385;41.594;23.808;2023-03-14T01:30:08;95671.06;;;1.94;64.79
24160;BME280;62385;41.594;23.808;2023-03-14T01:32:34;95656.72;;;2.21;63.97
24160;BME280;62385;41.594;23.808;2023-03-14T01:35:00;95667.56;;;2.17;64.04
24160;BME280;62385;41.594;23.808;2023-03-14T01:37:26;95662.56;;;2.25;63.88
24160;BME280;62385;41.594;23.808;2023-03-14T01:39:51;95652.09;;;2.25;63.50
24160;BME280;62385;41.594;23.808;2023-03-14T01:42:18;95656.47;;;2.13;63.53
24160;BME280;62385;41.594;23.808;2023-03-14T01:44:54;95652.69;;;1.82;64.42
24160;BME280;62385;41.594;23.808;2023-03-14T01:47:20;95653.00;;;2.02;64.19
24160;BME280;62385;41.594;23.808;2023-03-14T01:49:50;95636.31;;;1.92;63.71
24160;BME280;62385;41.594;23.808;2023-03-14T01:52:25;95645.41;;;2.32;63.34
24160;BME280;62385;41.594;23.808;2023-03-14T01:54:55;95654.34;;;2.18;63.14
24160;BME280;62385;41.594;23.808;2023-03-14T02:00:17;95657.47;;;1.89;63.91
24160;BME280;62385;41.594;23.808;2023-03-14T02:02:45;95652.47;;;1.85;63.82
24160;BME280;62385;41.594;23.808;2023-03-14T02:05:16;95652.91;;;1.79;64.27
24160;BME280;62385;41.594;23.808;2023-03-14T02:07:50;95652.66;;;1.71;64.54
24160;BME280;62385;41.594;23.808;2023-03-14T02:10:23;95660.84;;;1.67;64.44
24160;BME280;62385;41.594;23.808;2023-03-14T02:12:53;95646.28;;;1.86;64.62
24160;BME280;62385;41.594;23.808;2023-03-14T02:15:56;95648.19;;;1.84;64.36
24160;BME280;62385;41.594;23.808;2023-03-14T02:18:44;95647.00;;;1.89;63.96
24160;BME280;62385;41.594;23.808;2023-03-14T02:21:41;95643.81;;;1.96;64.11
24160;BME280;62385;41.594;23.808;2023-03-14T02:24:21;95633.31;;;1.85;64.19
24160;BME280;62385;41.594;23.808;2023-03-14T02:27:15;95651.72;;;1.72;64.62
24160;BME280;62385;41.594;23.808;2023-03-14T02:29:50;95647.53;;;1.70;65.01
24160;BME280;62385;41.594;23.808;2023-03-14T02:32:17;95648.81;;;1.64;65.35
24160;BME280;62385;41.594;23.808;2023-03-14T02:34:47;95655.81;;;1.53;65.47
24160;BME280;62385;41.594;23.808;2023-03-14T02:37:14;95649.25;;;1.58;65.19
24160;BME280;62385;41.594;23.808;2023-03-14T02:39:44;95659.50;;;1.14;66.11
24160;BME280;62385;41.594;23.808;2023-03-14T02:42:12;95648.28;;;1.48;64.99
24160;BME280;62385;41.594;23.808;2023-03-14T02:47:37;95642.59;;;1.54;65.26
24160;BME280;62385;41.594;23.808;2023-03-14T02:50:10;95652.91;;;1.45;65.52
24160;BME280;62385;41.594;23.808;2023-03-14T02:52:38;95646.59;;;1.47;66.22
24160;BME280;62385;41.594;23.808;2023-03-14T02:55:04;95646.97;;;1.77;64.88
24160;BME280;62385;41.594;23.808;2023-03-14T02:57:29;95648.59;;;1.67;64.94
24160;BME280;62385;41.594;23.808;2023-03-14T02:59:58;95654.41;;;1.36;65.90
24160;BME280;62385;41.594;23.808;2023-03-14T03:02:26;95640.72;;;1.56;65.28
24160;BME280;62385;41.594;23.808;2023-03-14T03:04:52;95646.31;;;1.63;65.10
24160;BME280;62385;41.594;23.808;2023-03-14T03:07:19;95649.75;;;1.63;65.19
24160;BME280;62385;41.594;23.808;2023-03-14T03:09:45;95653.44;;;1.37;65.70
24160;BME280;62385;41.594;23.808;2023-03-14T03:12:10;95655.91;;;1.51;65.47
24160;BME280;62385;41.594;23.808;2023-03-14T03:14:36;95645.44;;;1.51;65.38
24160;BME280;62385;41.594;23.808;2023-03-14T03:17:04;95653.38;;;1.26;66.82
24160;BME280;62385;41.594;23.808;2023-03-14T03:19:31;95656.34;;;1.69;65.52
24160;BME280;62385;41.594;23.808;2023-03-14T03:21:57;95646.13;;;1.77;64.99
24160;BME280;62385;41.594;23.808;2023-03-14T03:24:24;95647.53;;;2.05;64.09
24160;BME280;62385;41.594;23.808;2023-03-14T03:26:49;95653.09;;;2.00;64.52
24160;BME280;62385;41.594;23.808;2023-03-14T03:29:15;95638.47;;;1.98;64.25
24160;BME280;62385;41.594;23.808;2023-03-14T03:31:41;95637.09;;;2.27;63.79
24160;BME280;62385;41.594;23.808;2023-03-14T03:34:07;95641.13;;;2.20;63.69
24160;BME280;62385;41.594;23.808;2023-03-14T03:36:33;95643.22;;;2.04;64.75
24160;BME280;62385;41.594;23.808;2023-03-14T03:38:59;95651.88;;;1.82;65.60
24160;BME280;62385;41.594;23.808;2023-03-14T03:41:25;95648.63;;;1.78;65.05
24160;BME280;62385;41.594;23.808;2023-03-14T03:43:51;95643.97;;;2.06;64.42
24160;BME280;62385;41.594;23.808;2023-03-14T03:46:17;95638.09;;;1.56;65.23
24160;BME280;62385;41.594;23.808;2023-03-14T03:48:43;95633.06;;;1.29;66.11
24160;BME280;62385;41.594;23.808;2023-03-14T03:51:15;95644.84;;;1.24;66.24
24160;BME280;62385;41.594;23.808;2023-03-14T03:53:42;95630.41;;;1.18;66.38
24160;BME280;62385;41.594;23.808;2023-03-14T03:56:10;95630.19;;;1.69;65.63
24160;BME280;62385;41.594;23.808;2023-03-14T03:58:38;95635.09;;;1.84;64.10
24160;BME280;62385;41.594;23.808;2023-03-14T04:01:05;95624.03;;;1.92;64.35
24160;BME280;62385;41.594;23.808;2023-03-14T04:03:32;95625.53;;;1.72;64.46
24160;BME280;62385;41.594;23.808;2023-03-14T04:06:05;95620.16;;;1.98;63.80
24160;BME280;62385;41.594;23.808;2023-03-14T04:08:33;95622.50;;;1.90;64.21
24160;BME280;62385;41.594;23.808;2023-03-14T04:11:01;95629.16;;;1.59;64.42
24160;BME280;62385;41.594;23.808;2023-03-14T04:13:51;95623.34;;;1.31;65.57
24160;BME280;62385;41.594;23.808;2023-03-14T04:16:21;95621.59;;;1.32;65.43
24160;BME280;62385;41.594;23.808;2023-03-14T04:18:48;95614.72;;;1.42;64.98
24160;BME280;62385;41.594;23.808;2023-03-14T04:21:14;95625.06;;;1.44;65.51
24160;BME280;62385;41.594;23.808;2023-03-14T04:23:47;95623.09;;;1.58;65.06
24160;BME280;62385;41.594;23.808;2023-03-14T04:26:14;95629.09;;;1.71;64.87
24160;BME280;62385;41.594;23.808;2023-03-14T04:28:40;95625.19;;;1.77;64.56
24160;BME280;62385;41.594;23.808;2023-03-14T04:31:08;95632.13;;;1.54;64.23
24160;BME280;62385;41.594;23.808;2023-03-14T04:33:34;95636.56;;;1.41;65.07
24160;BME280;62385;41.594;23.808;2023-03-14T04:35:59;95636.84;;;1.49;64.55
24160;BME280;62385;41.594;23.808;2023-03-14T04:38:25;95632.81;;;1.21;65.43
24160;BME280;62385;41.594;23.808;2023-03-14T04:40:51;95641.25;;;1.25;65.38
24160;BME280;62385;41.594;23.808;2023-03-14T04:43:19;95641.81;;;1.17;66.12
24160;BME280;62385;41.594;23.808;2023-03-14T04:45:49;95643.72;;;1.39;65.63
24160;BME280;62385;41.594;23.808;2023-03-14T04:48:16;95646.00;;;1.44;64.94
24160;BME280;62385;41.594;23.808;2023-03-14T04:50:42;95638.88;;;1.22;65.36
24160;BME280;62385;41.594;23.808;2023-03-14T04:53:09;95640.97;;;1.17;65.80
24160;BME280;62385;41.594;23.808;2023-03-14T04:55:35;95644.13;;;1.09;65.71
24160;BME280;62385;41.594;23.808;2023-03-14T04:58:01;95640.25;;;1.15;66.05
24160;BME280;62385;41.594;23.808;2023-03-14T05:00:27;95638.03;;;0.85;66.40
24160;BME280;62385;41.594;23.808;2023-03-14T05:03:08;95635.13;;;1.13;65.75
24160;BME280;62385;41.594;23.808;2023-03-14T05:06:06;95636.94;;;1.36;65.88
24160;BME280;62385;41.594;23.808;2023-03-14T05:08:39;95640.50;;;1.94;63.47
24160;BME280;62385;41.594;23.808;2023-03-14T05:11:32;95636.53;;;1.89;63.69
24160;BME280;62385;41.594;23.808;2023-03-14T05:14:04;95635.88;;;2.20;63.30
24160;BME280;62385;41.594;23.808;2023-03-14T05:16:53;95637.56;;;2.32;62.78
24160;BME280;62385;41.594;23.808;2023-03-14T05:19:37;95639.69;;;2.16;63.90
24160;BME280;62385;41.594;23.808;2023-03-14T05:22:26;95639.00;;;2.25;63.76
24160;BME280;62385;41.594;23.808;2023-03-14T05:25:12;95638.78;;;2.50;62.24
24160;BME280;62385;41.594;23.808;2023-03-14T05:27:58;95630.59;;;2.77;62.68
24160;BME280;62385;41.594;23.808;2023-03-14T05:30:48;95639.16;;;2.68;63.03
24160;BME280;62385;41.594;23.808;2023-03-14T05:33:44;95630.91;;;2.61;62.76
24160;BME280;62385;41.594;23.808;2023-03-14T05:36:48;95626.88;;;2.46;63.25
24160;BME280;62385;41.594;23.808;2023-03-14T05:39:36;95626.16;;;2.66;62.89
24160;BME280;62385;41.594;23.808;2023-03-14T05:42:21;95628.41;;;2.93;62.66
24160;BME280;62385;41.594;23.808;2023-03-14T05:45:19;95623.59;;;3.20;62.28
24160;BME280;62385;41.594;23.808;2023-03-14T05:48:04;95624.53;;;3.62;60.83
24160;BME280;62385;41.594;23.808;2023-03-14T05:50:41;95627.31;;;3.82;60.20
24160;BME280;62385;41.594;23.808;2023-03-14T05:53:19;95635.28;;;3.91;60.34
24160;BME280;62385;41.594;23.808;2023-03-14T05:56:08;95628.69;;;3.97;59.29
24160;BME280;62385;41.594;23.808;2023-03-14T05:58:57;95634.00;;;4.06;59.14
24160;BME280;62385;41.594;23.808;2023-03-14T06:01:49;95636.00;;;4.14;59.06
24160;BME280;62385;41.594;23.808;2023-03-14T06:04:19;95624.31;;;4.28;58.58
24160;BME280;62385;41.594;23.808;2023-03-14T06:06:49;95626.56;;;4.32;59.31
24160;BME280;62385;41.594;23.808;2023-03-14T06:09:15;95621.31;;;4.11;59.42
24160;BME280;62385;41.594;23.808;2023-03-14T06:11:46;95617.09;;;4.20;60.00
24160;BME280;62385;41.594;23.808;2023-03-14T06:14:12;95612.09;;;3.96;59.86
24160;BME280;62385;41.594;23.808;2023-03-14T06:16:41;95615.00;;;4.14;60.81
24160;BME280;62385;41.594;23.808;2023-03-14T06:19:06;95608.44;;;4.29;60.22
24160;BME280;62385;41.594;23.808;2023-03-14T06:21:32;95613.31;;;4.13;61.18
24160;BME280;62385;41.594;23.808;2023-03-14T06:23:58;95614.00;;;4.36;60.33
24160;BME280;62385;41.594;23.808;2023-03-14T06:26:26;95621.41;;;4.31;59.89
24160;BME280;62385;41.594;23.808;2023-03-14T06:28:52;95619.38;;;4.55;59.35
24160;BME280;62385;41.594;23.808;2023-03-14T06:31:20;95618.72;;;4.62;59.55
24160;BME280;62385;41.594;23.808;2023-03-14T06:33:54;95619.72;;;4.71;59.55
24160;BME280;62385;41.594;23.808;2023-03-14T06:36:21;95618.03;;;4.70;59.68
24160;BME280;62385;41.594;23.808;2023-03-14T06:38:48;95624.28;;;4.48;60.94
24160;BME280;62385;41.594;23.808;2023-03-14T06:41:13;95614.63;;;4.49;61.53
24160;BME280;62385;41.594;23.808;2023-03-14T06:43:42;95615.47;;;4.49;61.75
24160;BME280;62385;41.594;23.808;2023-03-14T06:46:08;95612.44;;;4.54;61.51
24160;BME280;62385;41.594;23.808;2023-03-14T06:48:36;95608.25;;;4.82;61.18
24160;BME280;62385;41.594;23.808;2023-03-14T06:51:02;95606.84;;;5.08;61.06
24160;BME280;62385;41.594;23.808;2023-03-14T06:53:28;95616.69;;;4.76;60.84
24160;BME280;62385;41.594;23.808;2023-03-14T06:55:58;95603.97;;;4.81;61.45
24160;BME280;62385;41.594;23.808;2023-03-14T06:58:25;95592.97;;;5.06;60.60
24160;BME280;62385;41.594;23.808;2023-03-14T07:00:52;95589.84;;;5.31;60.89
24160;BME280;62385;41.594;23.808;2023-03-14T07:03:22;95591.31;;;5.05;61.62
24160;BME280;62385;41.594;23.808;2023-03-14T07:05:50;95599.09;;;5.16;60.76
24160;BME280;62385;41.594;23.808;2023-03-14T07:08:16;95592.09;;;5.45;60.28
24160;BME280;62385;41.594;23.808;2023-03-14T07:10:43;95592.03;;;5.17;61.69
24160;BME280;62385;41.594;23.808;2023-03-14T07:13:09;95586.63;;;5.18;61.18
24160;BME280;62385;41.594;23.808;2023-03-14T07:15:45;95585.38;;;5.22;60.47
24160;BME280;62385;41.594;23.808;2023-03-14T07:18:12;95575.13;;;5.19;60.80
24160;BME280;62385;41.594;23.808;2023-03-14T07:20:38;95576.34;;;5.05;60.70
24160;BME280;62385;41.594;23.808;2023-03-14T07:23:05;95584.53;;;5.12;60.71
24160;BME280;62385;41.594;23.808;2023-03-14T07:25:42;95579.84;;;5.16;60.15
24160;BME280;62385;41.594;23.808;2023-03-14T07:28:08;95575.72;;;5.32;59.57
24160;BME280;62385;41.594;23.808;2023-03-14T07:30:35;95564.94;;;5.54;58.64
24160;BME280;62385;41.594;23.808;2023-03-14T07:33:04;95563.00;;;5.66;58.77
24160;BME280;62385;41.594;23.808;2023-03-14T07:35:30;95572.41;;;5.69;58.56
24160;BME280;62385;41.594;23.808;2023-03-14T07:37:56;95557.19;;;5.91;58.14
24160;BME280;62385;41.594;23.808;2023-03-14T07:40:29;95553.38;;;5.84;58.79
24160;BME280;62385;41.594;23.808;2023-03-14T07:42:54;95550.38;;;5.98;57.92
24160;BME280;62385;41.594;23.808;2023-03-14T07:45:26;95557.28;;;6.09;58.13
24160;BME280;62385;41.594;23.808;2023-03-14T07:47:52;95557.16;;;6.01;57.66
24160;BME280;62385;41.594;23.808;2023-03-14T07:50:26;95546.38;;;6.41;56.23
24160;BME280;62385;41.594;23.808;2023-03-14T07:52:52;95543.31;;;6.45;55.78
24160;BME280;62385;41.594;23.808;2023-03-14T07:55:18;95538.94;;;6.64;55.43
24160;BME280;62385;41.594;23.808;2023-03-14T07:57:44;95532.13;;;6.88;54.07
24160;BME280;62385;41.594;23.808;2023-03-14T08:00:10;95536.88;;;7.12;53.49
24160;BME280;62385;41.594;23.808;2023-03-14T08:02:38;95529.16;;;7.01;53.43
24160;BME280;62385;41.594;23.808;2023-03-14T08:05:04;95526.03;;;7.15;52.76
24160;BME280;62385;41.594;23.808;2023-03-14T08:07:30;95525.75;;;6.91;52.24
24160;BME280;62385;41.594;23.808;2023-03-14T08:09:57;95512.25;;;6.94;52.28
24160;BME280;62385;41.594;23.808;2023-03-14T08:12:22;95511.75;;;7.26;51.49
24160;BME280;62385;41.594;23.808;2023-03-14T08:14:48;95519.69;;;7.43;51.36
24160;BME280;62385;41.594;23.808;2023-03-14T08:17:13;95511.38;;;7.21;52.17
24160;BME280;62385;41.594;23.808;2023-03-14T08:19:41;95512.56;;;7.09;51.62
24160;BME280;62385;41.594;23.808;2023-03-14T08:22:06;95511.16;;;7.50;50.00
24160;BME280;62385;41.594;23.808;2023-03-14T08:24:32;95508.31;;;7.61;50.41
24160;BME280;62385;41.594;23.808;2023-03-14T08:26:58;95502.91;;;7.70;50.71
24160;BME280;62385;41.594;23.808;2023-03-14T08:29:24;95495.88;;;7.97;50.35
24160;BME280;62385;41.594;23.808;2023-03-14T08:31:50;95496.56;;;7.99;48.89
24160;BME280;62385;41.594;23.808;2023-03-14T08:34:15;95492.63;;;8.03;50.37
24160;BME280;62385;41.594;23.808;2023-03-14T08:36:41;95486.97;;;7.80;49.77
24160;BME280;62385;41.594;23.808;2023-03-14T08:39:07;95483.47;;;7.97;49.13
24160;BME280;62385;41.594;23.808;2023-03-14T08:41:33;95486.50;;;8.62;49.09
24160;BME280;62385;41.594;23.808;2023-03-14T08:44:07;95480.63;;;8.42;47.45
24160;BME280;62385;41.594;23.808;2023-03-14T08:46:33;95473.97;;;8.30;48.23
24160;BME280;62385;41.594;23.808;2023-03-14T08:48:58;95471.72;;;8.77;47.23
24160;BME280;62385;41.594;23.808;2023-03-14T08:51:24;95469.53;;;8.72;47.29
24160;BME280;62385;41.594;23.808;2023-03-14T08:53:51;95468.00;;;8.70;46.78
24160;BME280;62385;41.594;23.808;2023-03-14T08:56:16;95453.56;;;8.90;45.53
24160;BME280;62385;41.594;23.808;2023-03-14T08:58:42;95449.06;;;8.91;46.11
24160;BME280;62385;41.594;23.808;2023-03-14T09:01:09;95443.47;;;9.02;45.89
24160;BME280;62385;41.594;23.808;2023-03-14T09:03:37;95436.78;;;8.73;46.49
24160;BME280;62385;41.594;23.808;2023-03-14T09:06:08;95420.81;;;9.07;44.82
24160;BME280;62385;41.594;23.808;2023-03-14T09:08:35;95421.84;;;9.31;44.21
24160;BME280;62385;41.594;23.808;2023-03-14T09:11:01;95404.75;;;9.98;42.42
24160;BME280;62385;41.594;23.808;2023-03-14T09:13:27;95412.91;;;9.72;42.35
24160;BME280;62385;41.594;23.808;2023-03-14T09:15:54;95404.69;;;10.14;41.76
24160;BME280;62385;41.594;23.808;2023-03-14T09:18:21;95409.84;;;10.15;42.03
24160;BME280;62385;41.594;23.808;2023-03-14T09:20:48;95409.19;;;10.22;43.14
24160;BME280;62385;41.594;23.808;2023-03-14T09:23:15;95405.72;;;10.05;43.68
24160;BME280;62385;41.594;23.808;2023-03-14T09:25:41;95403.88;;;10.05;43.09
24160;BME280;62385;41.594;23.808;2023-03-14T09:28:06;95399.75;;;10.58;42.59
24160;BME280;62385;41.594;23.808;2023-03-14T09:30:32;95399.91;;;10.17;42.96
24160;BME280;62385;41.594;23.808;2023-03-14T09:32:59;95395.44;;;10.18;42.22
24160;BME280;62385;41.594;23.808;2023-03-14T09:35:24;95394.72;;;10.71;42.43
24160;BME280;62385;41.594;23.808;2023-03-14T09:37:50;95387.28;;;10.11;42.07
24160;BME280;62385;41.594;23.808;2023-03-14T09:40:17;95383.63;;;10.12;42.20
24160;BME280;62385;41.594;23.808;2023-03-14T09:42:50;95367.84;;;10.66;42.22
24160;BME280;62385;41.594;23.808;2023-03-14T09:45:25;95375.16;;;10.33;42.68
24160;BME280;62385;41.594;23.808;2023-03-14T09:47:53;95353.06;;;10.94;42.29
24160;BME280;62385;41.594;23.808;2023-03-14T09:50:19;95351.97;;;11.34;41.01
24160;BME280;62385;41.594;23.808;2023-03-14T09:53:03;95341.88;;;11.30;39.89
24160;BME280;62385;41.594;23.808;2023-03-14T09:55:31;95336.25;;;11.02;42.31
24160;BME280;62385;41.594;23.808;2023-03-14T09:58:02;95335.06;;;11.27;41.82
24160;BME280;62385;41.594;23.808;2023-03-14T10:00:31;95330.28;;;11.45;40.11
24160;BME280;62385;41.594;23.808;2023-03-14T10:03:25;95320.38;;;11.54;41.11
24160;BME280;62385;41.594;23.808;2023-03-14T10:05:51;95308.31;;;11.66;40.20
24160;BME280;62385;41.594;23.808;2023-03-14T10:08:17;95311.53;;;11.76;39.97
24160;BME280;62385;41.594;23.808;2023-03-14T10:10:43;95295.41;;;12.07;38.12
24160;BME280;62385;41.594;23.808;2023-03-14T10:15:41;95287.97;;;11.73;36.93
24160;BME280;62385;41.594;23.808;2023-03-14T10:18:13;95271.34;;;12.30;36.74
24160;BME280;62385;41.594;23.808;2023-03-14T10:20:44;95281.69;;;12.39;37.53
24160;BME280;62385;41.594;23.808;2023-03-14T10:25:42;95258.75;;;12.95;36.87
24160;BME280;62385;41.594;23.808;2023-03-14T10:28:30;95264.72;;;12.26;36.67
24160;BME280;62385;41.594;23.808;2023-03-14T10:30:57;95258.50;;;12.33;38.61
24160;BME280;62385;41.594;23.808;2023-03-14T10:33:26;95258.28;;;12.35;37.01
24160;BME280;62385;41.594;23.808;2023-03-14T10:36:14;95244.66;;;12.80;37.49
24160;BME280;62385;41.594;23.808;2023-03-14T10:38:42;95229.44;;;13.17;36.79
24160;BME280;62385;41.594;23.808;2023-03-14T10:41:19;95216.97;;;13.03;36.52
24160;BME280;62385;41.594;23.808;2023-03-14T10:43:57;95211.47;;;13.60;35.45
24160;BME280;62385;41.594;23.808;2023-03-14T10:46:26;95221.22;;;13.74;37.02
24160;BME280;62385;41.594;23.808;2023-03-14T10:49:32;95206.47;;;13.44;36.78
24160;BME280;62385;41.594;23.808;2023-03-14T10:52:25;95205.72;;;13.97;35.76
24160;BME280;62385;41.594;23.808;2023-03-14T10:54:56;95197.41;;;13.79;36.48
24160;BME280;62385;41.594;23.808;2023-03-14T10:57:22;95184.78;;;13.53;37.47
24160;BME280;62385;41.594;23.808;2023-03-14T10:59:48;95179.56;;;13.79;36.38
24160;BME280;62385;41.594;23.808;2023-03-14T11:10:42;95147.00;;;14.58;35.42
24160;BME280;62385;41.594;23.808;2023-03-14T11:27:03;95095.38;;;15.23;32.92
24160;BME280;62385;41.594;23.808;2023-03-14T11:29:46;95083.31;;;14.94;34.28
24160;BME280;62385;41.594;23.808;2023-03-14T11:35:30;95075.44;;;14.27;32.60
24160;BME280;62385;41.594;23.808;2023-03-14T11:40:41;95066.22;;;14.75;35.04
24160;BME280;62385;41.594;23.808;2023-03-14T11:45:40;95038.84;;;15.77;31.46
24160;BME280;62385;41.594;23.808;2023-03-14T11:50:50;95028.06;;;16.22;31.75
24160;BME280;62385;41.594;23.808;2023-03-14T11:53:43;95034.81;;;14.51;31.71
24160;BME280;62385;41.594;23.808;2023-03-14T11:56:23;95028.19;;;14.21;31.78
24160;BME280;62385;41.594;23.808;2023-03-14T11:58:56;95013.41;;;14.91;30.96
24160;BME280;62385;41.594;23.808;2023-03-14T12:01:29;95006.69;;;16.15;30.31
24160;BME280;62385;41.594;23.808;2023-03-14T12:04:16;94986.19;;;16.02;30.07
24160;BME280;62385;41.594;23.808;2023-03-14T12:06:49;94980.78;;;16.09;30.47
24160;BME280;62385;41.594;23.808;2023-03-14T12:09:18;94982.81;;;16.13;31.22
24160;BME280;62385;41.594;23.808;2023-03-14T12:11:57;94966.56;;;16.83;28.77
24160;BME280;62385;41.594;23.808;2023-03-14T12:14:30;94972.50;;;14.70;30.29
24160;BME280;62385;41.594;23.808;2023-03-14T12:17:03;94962.25;;;14.67;30.02
24160;BME280;62385;41.594;23.808;2023-03-14T12:19:32;94946.63;;;15.73;28.65
24160;BME280;62385;41.594;23.808;2023-03-14T12:22:05;94950.00;;;15.93;28.71
24160;BME280;62385;41.594;23.808;2023-03-14T12:24:35;94943.53;;;15.69;29.37
24160;BME280;62385;41.594;23.808;2023-03-14T12:27:03;94949.88;;;15.82;29.65
24160;BME280;62385;41.594;23.808;2023-03-14T12:29:29;94943.41;;;16.21;28.37
24160;BME280;62385;41.594;23.808;2023-03-14T12:37:03;94924.63;;;16.27;27.79
24160;BME280;62385;41.594;23.808;2023-03-14T12:50:25;94892.66;;;17.23;27.50
24160;BME280;62385;41.594;23.808;2023-03-14T12:55:35;94884.94;;;16.79;26.74
24160;BME280;62385;41.594;23.808;2023-03-14T12:58:23;94885.38;;;16.33;27.68
24160;BME280;62385;41.594;23.808;2023-03-14T13:00:58;94875.19;;;17.32;28.04
24160;BME280;62385;41.594;23.808;2023-03-14T13:06:50;94865.47;;;17.20;27.14
24160;BME280;62385;41.594;23.808;2023-03-14T13:11:53;94868.56;;;17.05;28.50
24160;BME280;62385;41.594;23.808;2023-03-14T13:14:19;94850.75;;;17.82;27.61
24160;BME280;62385;41.594;23.808;2023-03-14T13:16:47;94852.50;;;16.69;27.49
24160;BME280;62385;41.594;23.808;2023-03-14T13:19:19;94844.72;;;16.97;28.42
24160;BME280;62385;41.594;23.808;2023-03-14T13:21:47;94833.72;;;17.17;29.12
24160;BME280;62385;41.594;23.808;2023-03-14T13:24:26;94828.84;;;17.96;27.91
24160;BME280;62385;41.594;23.808;2023-03-14T13:26:55;94827.91;;;16.72;27.57
24160;BME280;62385;41.594;23.808;2023-03-14T13:29:32;94830.06;;;16.63;28.48
24160;BME280;62385;41.594;23.808;2023-03-14T13:32:00;94821.91;;;17.77;28.52
24160;BME280;62385;41.594;23.808;2023-03-14T13:34:31;94815.75;;;18.00;29.00
24160;BME280;62385;41.594;23.808;2023-03-14T13:36:58;94818.09;;;18.20;29.08
24160;BME280;62385;41.594;23.808;2023-03-14T13:39:26;94809.78;;;17.45;29.28
24160;BME280;62385;41.594;23.808;2023-03-14T13:41:58;94796.84;;;17.83;29.32
24160;BME280;62385;41.594;23.808;2023-03-14T13:47:18;94802.38;;;17.17;30.23
24160;BME280;62385;41.594;23.808;2023-03-14T13:49:45;94787.78;;;17.54;30.56
24160;BME280;62385;41.594;23.808;2023-03-14T13:52:31;94792.31;;;17.13;30.90
24160;BME280;62385;41.594;23.808;2023-03-14T13:55:00;94789.88;;;17.23;29.46
24160;BME280;62385;41.594;23.808;2023-03-14T13:57:45;94780.22;;;18.44;29.77
24160;BME280;62385;41.594;23.808;2023-03-14T14:00:20;94779.53;;;18.37;30.67
24160;BME280;62385;41.594;23.808;2023-03-14T14:02:47;94785.06;;;17.43;32.26
24160;BME280;62385;41.594;23.808;2023-03-14T14:05:13;94774.03;;;17.63;32.57
24160;BME280;62385;41.594;23.808;2023-03-14T14:07:40;94776.97;;;18.08;31.88
24160;BME280;62385;41.594;23.808;2023-03-14T14:10:11;94778.81;;;17.19;32.77
24160;BME280;62385;41.594;23.808;2023-03-14T14:12:55;94774.53;;;18.06;33.86
24160;BME280;62385;41.594;23.808;2023-03-14T14:15:31;94766.91;;;17.68;33.54
24160;BME280;62385;41.594;23.808;2023-03-14T14:18:00;94762.50;;;18.09;32.90
24160;BME280;62385;41.594;23.808;2023-03-14T14:23:00;94764.34;;;17.85;33.68
24160;BME280;62385;41.594;23.808;2023-03-14T14:25:28;94755.56;;;17.43;33.56
24160;BME280;62385;41.594;23.808;2023-03-14T14:27:54;94750.34;;;17.60;33.64
24160;BME280;62385;41.594;23.808;2023-03-14T14:32:48;94744.84;;;18.24;33.79